createdAt,value
2023-11-30T00:01:27.904Z,3.69
2023-11-30T00:03:56.024Z,3.68
2023-11-30T00:06:25.499Z,3.62
2023-11-30T00:08:54.727Z,3.43
2023-11-30T00:11:22.741Z,3.75
2023-11-30T00:13:50.658Z,3.68
2023-11-30T00:16:18.712Z,3.71
2023-11-30T00:18:46.747Z,3.60
2023-11-30T00:21:14.832Z,3.60
2023-11-30T00:23:44.184Z,3.72
2023-11-30T00:26:12.616Z,3.74
2023-11-30T00:28:40.548Z,3.74
2023-11-30T00:31:09.736Z,3.87
2023-11-30T00:33:37.778Z,3.62
2023-11-30T00:36:09.079Z,3.61
2023-11-30T00:38:37.093Z,3.71
2023-11-30T00:41:06.792Z,3.57
2023-11-30T00:43:34.759Z,3.68
2023-11-30T00:46:09.497Z,3.65
2023-11-30T00:48:38.164Z,3.65
2023-11-30T00:51:06.459Z,3.60
2023-11-30T00:53:34.431Z,3.63
2023-11-30T00:56:02.373Z,3.64
2023-11-30T00:58:31.740Z,3.77
2023-11-30T01:00:59.806Z,3.74
2023-11-30T01:03:27.950Z,3.69
2023-11-30T01:05:55.974Z,3.64
2023-11-30T01:08:24.024Z,3.48
2023-11-30T01:10:51.989Z,3.63
2023-11-30T01:13:19.999Z,3.44
2023-11-30T01:15:49.453Z,3.34
2023-11-30T01:18:17.561Z,3.61
2023-11-30T01:20:45.656Z,3.50
2023-11-30T01:23:13.616Z,3.52
2023-11-30T01:25:41.557Z,3.36
2023-11-30T01:28:09.544Z,3.64
2023-11-30T01:30:37.606Z,3.60
2023-11-30T01:33:07.058Z,3.36
2023-11-30T01:35:35.106Z,3.56
2023-11-30T01:38:03.316Z,3.64
2023-11-30T01:40:31.621Z,3.39
2023-11-30T01:43:07.823Z,3.45
2023-11-30T01:45:35.925Z,3.31
2023-11-30T01:48:04.190Z,3.37
2023-11-30T01:50:33.636Z,3.30
2023-11-30T01:53:01.574Z,3.30
2023-11-30T01:55:29.586Z,3.16
2023-11-30T01:57:57.622Z,3.33
2023-11-30T02:00:25.585Z,3.27
2023-11-30T02:02:53.578Z,3.36
2023-11-30T02:05:21.533Z,3.30
2023-11-30T02:07:50.896Z,3.35
2023-11-30T02:10:18.914Z,3.24
2023-11-30T02:12:46.939Z,3.28
2023-11-30T02:15:15.018Z,3.39
2023-11-30T02:17:43.005Z,3.35
2023-11-30T02:20:11.907Z,3.37
2023-11-30T02:22:41.283Z,3.39
2023-11-30T02:25:10.002Z,3.27
2023-11-30T02:27:38.120Z,3.31
2023-11-30T02:30:07.376Z,3.23
2023-11-30T02:32:35.584Z,3.19
2023-11-30T02:35:03.701Z,3.30
2023-11-30T02:37:31.746Z,3.29
2023-11-30T02:40:01.094Z,3.21
2023-11-30T02:42:29.131Z,2.98
2023-11-30T02:44:57.185Z,3.09
2023-11-30T02:47:25.194Z,3.25
2023-11-30T02:49:53.314Z,2.99
2023-11-30T02:52:21.309Z,3.13
2023-11-30T02:54:49.296Z,2.88
2023-11-30T02:57:18.856Z,3.11
2023-11-30T02:59:47.288Z,2.92
2023-11-30T03:02:15.647Z,3.17
2023-11-30T03:04:43.772Z,2.95
2023-11-30T03:07:11.825Z,2.94
2023-11-30T03:09:39.806Z,2.94
2023-11-30T03:12:08.214Z,3.03
2023-11-30T03:14:37.649Z,3.12
2023-11-30T03:17:05.812Z,3.07
2023-11-30T03:19:33.877Z,3.17
2023-11-30T03:22:01.835Z,3.16
2023-11-30T03:24:29.869Z,3.25
2023-11-30T03:26:57.874Z,3.29
2023-11-30T03:29:25.887Z,3.43
2023-11-30T03:31:55.316Z,3.42
2023-11-30T03:34:23.353Z,3.28
2023-11-30T03:36:51.437Z,2.98
2023-11-30T03:39:19.622Z,3.22
2023-11-30T03:41:47.654Z,3.19
2023-11-30T03:44:15.713Z,3.15
2023-11-30T03:46:43.813Z,3.33
2023-11-30T03:49:13.273Z,3.12
2023-11-30T03:51:41.344Z,3.15
2023-11-30T03:54:09.406Z,3.37
2023-11-30T03:56:37.463Z,3.35
2023-11-30T03:59:05.412Z,3.39
2023-11-30T04:01:33.471Z,3.30
2023-11-30T04:04:01.692Z,3.22
2023-11-30T04:06:31.216Z,3.20
2023-11-30T04:09:00.506Z,3.12
2023-11-30T04:11:28.543Z,3.10
2023-11-30T04:14:06.090Z,3.37
2023-11-30T04:16:34.490Z,3.07
2023-11-30T04:19:02.607Z,3.18
2023-11-30T04:21:32.092Z,3.30
2023-11-30T04:24:00.118Z,3.37
2023-11-30T04:26:28.352Z,3.25
2023-11-30T04:28:56.301Z,3.23
2023-11-30T04:31:24.300Z,3.17
2023-11-30T04:33:52.351Z,3.09
2023-11-30T04:36:20.915Z,3.23
2023-11-30T04:38:50.267Z,3.18
2023-11-30T04:41:18.288Z,3.01
2023-11-30T04:43:46.251Z,2.94
2023-11-30T04:46:14.242Z,3.06
2023-11-30T04:48:42.583Z,2.93
2023-11-30T04:51:11.151Z,3.07
2023-11-30T04:53:39.529Z,3.09
2023-11-30T04:56:10.034Z,3.13
2023-11-30T04:58:37.951Z,3.05
2023-11-30T05:01:06.231Z,3.06
2023-11-30T05:03:34.495Z,3.04
2023-11-30T05:06:02.590Z,3.10
2023-11-30T05:08:30.571Z,3.24
2023-11-30T05:10:58.600Z,3.20
2023-11-30T05:13:28.458Z,3.16
2023-11-30T05:15:56.408Z,3.31
2023-11-30T05:18:24.415Z,3.19
2023-11-30T05:20:52.454Z,3.19
2023-11-30T05:23:20.484Z,3.18
2023-11-30T05:25:48.486Z,3.26
2023-11-30T05:28:16.428Z,3.29
2023-11-30T05:30:45.813Z,3.18
2023-11-30T05:33:13.913Z,3.26
2023-11-30T05:35:42.001Z,3.21
2023-11-30T05:38:09.997Z,3.27
2023-11-30T05:40:38.125Z,3.26
2023-11-30T05:43:06.467Z,3.18
2023-11-30T05:45:34.520Z,3.13
2023-11-30T05:48:04.036Z,3.12
2023-11-30T05:50:32.113Z,3.12
2023-11-30T05:53:00.121Z,3.08
2023-11-30T05:55:28.152Z,2.97
2023-11-30T05:57:56.123Z,3.02
2023-11-30T06:00:24.117Z,3.10
2023-11-30T06:02:52.196Z,2.91
2023-11-30T06:05:21.624Z,2.98
2023-11-30T06:07:49.657Z,2.89
2023-11-30T06:10:17.727Z,2.86
2023-11-30T06:12:45.835Z,2.75
2023-11-30T06:15:14.584Z,2.85
2023-11-30T06:17:42.819Z,3.06
2023-11-30T06:20:16.629Z,2.90
2023-11-30T06:22:51.535Z,3.06
2023-11-30T06:25:26.140Z,2.90
2023-11-30T06:27:54.456Z,2.87
2023-11-30T06:30:22.500Z,2.81
2023-11-30T06:32:50.627Z,2.75
2023-11-30T06:35:18.746Z,3.02
2023-11-30T06:37:48.192Z,2.83
2023-11-30T06:40:16.384Z,2.89
2023-11-30T06:42:44.307Z,2.98
2023-11-30T06:45:13.059Z,2.80
2023-11-30T06:47:41.130Z,2.92
2023-11-30T06:50:09.933Z,2.89
2023-11-30T06:52:37.946Z,2.94
2023-11-30T06:55:08.028Z,3.05
2023-11-30T06:57:36.409Z,3.04
2023-11-30T07:00:07.902Z,3.09
2023-11-30T07:02:36.004Z,3.13
2023-11-30T07:05:06.487Z,3.06
2023-11-30T07:07:36.870Z,3.16
2023-11-30T07:10:08.562Z,3.16
2023-11-30T07:12:36.559Z,3.12
2023-11-30T07:15:05.187Z,3.16
2023-11-30T07:17:33.253Z,3.21
2023-11-30T07:20:01.643Z,3.26
2023-11-30T07:22:30.659Z,3.14
2023-11-30T07:24:58.704Z,3.24
2023-11-30T07:27:28.731Z,3.26
2023-11-30T07:29:56.862Z,3.20
2023-11-30T07:32:25.239Z,3.29
2023-11-30T07:34:53.997Z,3.11
2023-11-30T07:37:23.460Z,3.29
2023-11-30T07:39:51.499Z,3.31
2023-11-30T07:42:29.337Z,3.49
2023-11-30T07:45:04.810Z,3.37
2023-11-30T07:47:32.971Z,3.50
2023-11-30T07:50:01.424Z,3.44
2023-11-30T07:52:30.250Z,3.41
2023-11-30T07:54:58.383Z,3.37
2023-11-30T07:57:26.492Z,3.48
2023-11-30T07:59:54.573Z,3.41
2023-11-30T08:02:23.939Z,3.48
2023-11-30T08:04:51.956Z,3.63
2023-11-30T08:07:21.928Z,3.63
2023-11-30T08:09:50.056Z,3.59
2023-11-30T08:12:18.104Z,3.73
2023-11-30T08:14:46.083Z,3.58
2023-11-30T08:17:14.172Z,3.67
2023-11-30T08:19:43.584Z,3.70
2023-11-30T08:22:14.656Z,3.80
2023-11-30T08:24:44.105Z,3.81
2023-11-30T08:27:12.340Z,3.60
2023-11-30T08:29:40.378Z,3.85
2023-11-30T08:32:08.444Z,3.95
2023-11-30T08:34:36.902Z,4.01
2023-11-30T08:37:06.516Z,4.03
2023-11-30T08:39:34.512Z,3.83
2023-11-30T08:42:02.751Z,3.73
2023-11-30T08:44:30.781Z,3.80
2023-11-30T08:46:58.804Z,3.89
2023-11-30T08:49:26.807Z,4.00
2023-11-30T08:51:55.517Z,3.80
2023-11-30T08:54:25.403Z,3.85
2023-11-30T08:56:54.101Z,4.04
2023-11-30T08:59:22.769Z,3.99
2023-11-30T09:01:50.193Z,4.06
2023-11-30T09:04:18.438Z,4.16
2023-11-30T09:06:46.815Z,4.22
2023-11-30T09:09:15.008Z,4.16
2023-11-30T09:11:45.931Z,4.01
2023-11-30T09:14:14.013Z,4.01
2023-11-30T09:16:42.082Z,4.16
2023-11-30T09:19:10.133Z,4.10
2023-11-30T09:21:38.148Z,4.04
2023-11-30T09:24:11.175Z,4.20
2023-11-30T09:27:02.943Z,3.88
2023-11-30T09:29:31.534Z,3.95
2023-11-30T09:32:00.828Z,3.89
2023-11-30T09:34:36.919Z,3.99
2023-11-30T09:37:10.566Z,4.03
2023-11-30T09:39:43.521Z,4.10
2023-11-30T09:42:17.360Z,3.91
2023-11-30T09:44:45.544Z,4.02
2023-11-30T09:47:13.783Z,4.29
2023-11-30T09:49:41.837Z,4.37
2023-11-30T09:52:12.301Z,4.37
2023-11-30T09:54:40.305Z,4.57
2023-11-30T09:57:08.683Z,4.05
2023-11-30T09:59:38.506Z,4.30
2023-11-30T10:02:07.714Z,4.09
2023-11-30T10:04:37.075Z,4.18
2023-11-30T10:07:05.046Z,4.46
2023-11-30T10:09:34.850Z,4.50
2023-11-30T10:12:02.803Z,4.40
2023-11-30T10:14:30.823Z,4.53
2023-11-30T10:17:01.178Z,4.70
2023-11-30T10:19:29.714Z,4.85
2023-11-30T10:21:57.922Z,4.63
2023-11-30T10:24:26.033Z,4.55
2023-11-30T10:26:54.240Z,4.69
2023-11-30T10:29:22.543Z,5.01
2023-11-30T10:31:51.559Z,5.01
2023-11-30T10:34:22.783Z,5.11
2023-11-30T10:36:51.142Z,5.12
2023-11-30T10:39:19.471Z,4.96
2023-11-30T10:41:52.015Z,4.96
2023-11-30T10:44:27.499Z,5.04
2023-11-30T10:46:56.971Z,5.18
2023-11-30T10:49:27.032Z,5.13
2023-11-30T10:51:59.049Z,5.44
2023-11-30T10:54:33.086Z,5.50
2023-11-30T10:57:01.568Z,5.50
2023-11-30T10:59:30.693Z,5.61
2023-11-30T11:01:58.936Z,5.65
2023-11-30T11:04:28.758Z,5.69
2023-11-30T11:07:03.285Z,5.52
2023-11-30T11:09:41.816Z,5.80
2023-11-30T11:12:20.293Z,5.44
2023-11-30T11:14:49.404Z,5.51
2023-11-30T11:17:17.461Z,5.45
2023-11-30T11:19:46.837Z,5.53
2023-11-30T11:22:18.719Z,5.46
2023-11-30T11:24:48.374Z,5.49
2023-11-30T11:27:29.025Z,5.37
2023-11-30T11:29:58.300Z,5.33
2023-11-30T11:32:26.654Z,5.42
2023-11-30T11:34:56.053Z,5.19
2023-11-30T11:37:24.191Z,5.18
2023-11-30T11:39:53.516Z,5.14
2023-11-30T11:42:23.575Z,5.31
2023-11-30T11:44:51.851Z,5.06
2023-11-30T11:47:21.203Z,5.10
2023-11-30T11:49:49.256Z,5.19
2023-11-30T11:52:22.212Z,5.17
2023-11-30T11:55:00.480Z,5.13
2023-11-30T11:57:35.963Z,5.08
2023-11-30T12:00:04.474Z,5.03
2023-11-30T12:02:33.956Z,5.07
2023-11-30T12:05:09.988Z,5.01
2023-11-30T12:07:49.416Z,4.99
2023-11-30T12:10:31.198Z,4.95
2023-11-30T12:12:59.701Z,5.00
2023-11-30T12:15:27.768Z,4.99
2023-11-30T12:17:55.882Z,5.09
2023-11-30T12:20:24.447Z,5.12
2023-11-30T12:22:53.834Z,5.14
2023-11-30T12:25:21.769Z,5.25
2023-11-30T12:27:51.410Z,5.20
2023-11-30T12:30:20.104Z,5.15
2023-11-30T12:32:48.587Z,5.21
2023-11-30T12:35:16.653Z,5.34
2023-11-30T12:37:44.641Z,5.16
2023-11-30T12:40:15.017Z,5.03
2023-11-30T12:42:44.155Z,5.12
2023-11-30T12:45:12.436Z,5.26
2023-11-30T12:47:41.621Z,5.30
2023-11-30T12:50:11.260Z,5.32
2023-11-30T12:52:39.402Z,5.43
2023-11-30T12:55:09.516Z,5.28
2023-11-30T12:57:40.683Z,5.43
2023-11-30T13:00:16.223Z,5.47
2023-11-30T13:02:47.080Z,5.50
2023-11-30T13:05:15.537Z,5.50
2023-11-30T13:07:43.542Z,5.45
2023-11-30T13:10:12.748Z,5.61
2023-11-30T13:12:42.993Z,5.64
2023-11-30T13:15:13.623Z,5.72
2023-11-30T13:17:42.555Z,5.84
2023-11-30T13:20:14.214Z,5.86
2023-11-30T13:22:43.264Z,5.94
2023-11-30T13:25:14.828Z,6.02
2023-11-30T13:27:47.521Z,6.00
2023-11-30T13:30:16.739Z,5.86
2023-11-30T13:32:44.766Z,5.72
2023-11-30T13:35:12.773Z,5.62
2023-11-30T13:37:41.051Z,5.67
2023-11-30T13:40:11.090Z,5.81
2023-11-30T13:42:39.312Z,5.87
2023-11-30T13:45:09.581Z,5.64
2023-11-30T13:47:37.584Z,5.61
2023-11-30T13:50:12.543Z,5.71
2023-11-30T13:52:48.376Z,5.50
2023-11-30T13:55:16.598Z,5.32
2023-11-30T13:57:45.161Z,5.25
2023-11-30T14:00:21.592Z,5.41
2023-11-30T14:02:56.304Z,5.39
2023-11-30T14:05:24.817Z,5.32
2023-11-30T14:07:52.808Z,5.28
2023-11-30T14:10:19.956Z,5.34
2023-11-30T14:12:48.253Z,5.17
2023-11-30T14:15:40.300Z,5.11
2023-11-30T14:18:08.745Z,5.06
2023-11-30T14:20:38.426Z,5.15
2023-11-30T14:23:22.497Z,5.04
2023-11-30T14:26:06.851Z,5.01
2023-11-30T14:28:36.106Z,5.01
2023-11-30T14:31:05.782Z,4.74
2023-11-30T14:33:33.836Z,4.84
2023-11-30T14:36:01.866Z,4.81
2023-11-30T14:38:29.815Z,4.78
2023-11-30T14:40:58.826Z,4.68
2023-11-30T14:43:27.786Z,4.62
2023-11-30T14:45:55.946Z,4.56
2023-11-30T14:48:25.534Z,4.45
2023-11-30T14:50:55.749Z,4.38
2023-11-30T14:53:24.038Z,4.44
2023-11-30T14:55:52.030Z,4.38
2023-11-30T14:58:21.102Z,4.36
2023-11-30T15:00:50.341Z,4.30
2023-11-30T15:03:18.432Z,4.26
2023-11-30T15:05:47.954Z,4.24
2023-11-30T15:08:17.635Z,4.27
2023-11-30T15:10:49.830Z,4.23
2023-11-30T15:13:18.101Z,4.10
2023-11-30T15:15:46.336Z,3.94
2023-11-30T15:18:14.559Z,3.94
2023-11-30T15:20:45.004Z,3.79
2023-11-30T15:23:14.356Z,3.74
2023-11-30T15:25:42.442Z,3.69
2023-11-30T15:28:12.078Z,3.80
2023-11-30T15:30:40.112Z,3.73
2023-11-30T15:33:09.919Z,3.74
2023-11-30T15:35:39.540Z,3.56
2023-11-30T15:38:15.065Z,3.48
2023-11-30T15:40:47.603Z,3.56
2023-11-30T15:43:15.656Z,3.50
2023-11-30T15:45:43.661Z,3.51
2023-11-30T15:48:14.195Z,3.49
2023-11-30T15:50:42.316Z,3.40
2023-11-30T15:53:10.287Z,3.36
2023-11-30T15:55:38.877Z,3.31
2023-11-30T15:58:08.324Z,3.33
2023-11-30T16:00:36.623Z,3.31
2023-11-30T16:03:05.860Z,3.29
2023-11-30T16:05:34.073Z,3.23
2023-11-30T16:08:02.019Z,3.21
2023-11-30T16:10:30.012Z,3.24
2023-11-30T16:12:57.995Z,3.17
2023-11-30T16:15:29.004Z,3.23
2023-11-30T16:17:57.172Z,3.17
2023-11-30T16:20:25.660Z,3.09
2023-11-30T16:22:53.645Z,3.10
2023-11-30T16:25:21.834Z,3.09
2023-11-30T16:27:49.899Z,2.98
2023-11-30T16:30:19.707Z,2.94
2023-11-30T16:32:49.871Z,2.98
2023-11-30T16:35:17.892Z,2.91
2023-11-30T16:37:45.800Z,3.02
2023-11-30T16:40:13.906Z,3.01
2023-11-30T16:42:44.553Z,2.94
2023-11-30T16:45:19.154Z,2.98
2023-11-30T16:47:48.707Z,2.98
2023-11-30T16:50:16.744Z,3.10
2023-11-30T16:52:49.194Z,3.12
2023-11-30T16:55:26.472Z,3.12
2023-11-30T16:57:55.161Z,3.23
2023-11-30T17:00:23.431Z,3.21
2023-11-30T17:02:54.764Z,3.28
2023-11-30T17:05:22.843Z,3.20
2023-11-30T17:07:50.851Z,3.18
2023-11-30T17:10:18.914Z,3.11
2023-11-30T17:12:46.941Z,3.07
2023-11-30T17:15:15.371Z,3.08
2023-11-30T17:17:46.517Z,3.02
2023-11-30T17:20:16.068Z,2.95
2023-11-30T17:22:47.045Z,2.81
2023-11-30T17:25:15.281Z,2.76
2023-11-30T17:27:43.307Z,2.77
2023-11-30T17:30:11.893Z,2.83
2023-11-30T17:32:39.968Z,2.89
2023-11-30T17:35:08.974Z,2.85
2023-11-30T17:37:38.381Z,2.77
2023-11-30T17:40:07.348Z,2.72
2023-11-30T17:42:36.193Z,2.84
2023-11-30T17:45:04.568Z,2.67
2023-11-30T17:47:32.566Z,2.53
2023-11-30T17:50:03.108Z,2.56
2023-11-30T17:52:32.419Z,2.58
2023-11-30T17:55:02.365Z,2.66
2023-11-30T17:57:30.466Z,2.62
2023-11-30T17:59:58.434Z,2.58
2023-11-30T18:02:27.789Z,2.65
2023-11-30T18:04:55.909Z,2.66
2023-11-30T18:07:23.906Z,2.64
2023-11-30T18:09:51.939Z,2.67
2023-11-30T18:12:21.351Z,2.61
2023-11-30T18:14:49.344Z,2.66
2023-11-30T18:17:17.328Z,2.69
2023-11-30T18:19:45.313Z,2.66
2023-11-30T18:22:13.326Z,2.60
2023-11-30T18:24:41.365Z,2.59
2023-11-30T18:27:09.348Z,2.51
2023-11-30T18:29:38.954Z,2.41
2023-11-30T18:32:07.160Z,2.41
2023-11-30T18:34:36.850Z,2.47
2023-11-30T18:37:08.420Z,2.32
2023-11-30T18:39:39.852Z,2.23
2023-11-30T18:42:15.958Z,2.07
2023-11-30T18:44:45.494Z,2.06
2023-11-30T18:47:15.746Z,2.10
2023-11-30T18:49:43.799Z,2.12
2023-11-30T18:52:11.752Z,2.10
2023-11-30T18:54:40.267Z,2.19
2023-11-30T18:57:08.280Z,2.11
2023-11-30T18:59:36.258Z,2.10
2023-11-30T19:02:06.092Z,2.11
2023-11-30T19:04:34.903Z,2.16
2023-11-30T19:07:02.865Z,2.17
2023-11-30T19:09:30.843Z,2.09
2023-11-30T19:11:58.854Z,2.10
2023-11-30T19:14:27.245Z,2.11
2023-11-30T19:16:55.250Z,2.08
2023-11-30T19:19:26.203Z,2.07
2023-11-30T19:21:54.487Z,2.02
2023-11-30T19:24:22.536Z,1.98
2023-11-30T19:26:50.493Z,1.97
2023-11-30T19:29:19.487Z,2.02
2023-11-30T19:31:47.529Z,2.06
2023-11-30T19:34:16.234Z,2.00
2023-11-30T19:36:46.416Z,1.95
2023-11-30T19:39:14.540Z,1.86
2023-11-30T19:41:43.853Z,2.00
2023-11-30T19:44:12.659Z,2.07
2023-11-30T19:46:40.817Z,2.08
2023-11-30T19:49:08.817Z,1.90
2023-11-30T19:51:37.231Z,1.85
2023-11-30T19:54:06.840Z,1.86
2023-11-30T19:56:37.030Z,1.87
2023-11-30T19:59:05.004Z,1.75
2023-11-30T20:01:33.402Z,1.79
2023-11-30T20:04:01.548Z,1.77
2023-11-30T20:06:29.588Z,1.62
2023-11-30T20:08:57.679Z,1.57
2023-11-30T20:11:27.214Z,1.61
2023-11-30T20:13:55.285Z,1.56
2023-11-30T20:16:23.383Z,1.58
2023-11-30T20:18:51.468Z,1.51
2023-11-30T20:21:19.882Z,1.52
2023-11-30T20:23:47.914Z,1.54
2023-11-30T20:26:18.780Z,1.48
2023-11-30T20:28:48.181Z,1.56
2023-11-30T20:31:16.693Z,1.58
2023-11-30T20:33:46.974Z,1.54
2023-11-30T20:36:15.847Z,1.48
2023-11-30T20:38:44.739Z,1.53
2023-11-30T20:41:13.102Z,1.52
2023-11-30T20:43:41.098Z,1.45
2023-11-30T20:46:10.628Z,1.45
2023-11-30T20:48:38.666Z,1.22
2023-11-30T20:51:07.351Z,0.94
2023-11-30T20:53:35.448Z,0.40
2023-11-30T20:56:03.953Z,0.21
2023-11-30T20:58:32.228Z,0.24
2023-11-30T21:01:00.859Z,0.41
2023-11-30T21:03:30.979Z,0.39
2023-11-30T21:06:01.043Z,0.25
2023-11-30T21:08:31.096Z,0.55
2023-11-30T21:10:59.144Z,0.43
2023-11-30T21:13:27.123Z,0.33
2023-11-30T21:15:55.113Z,0.30
2023-11-30T21:18:23.193Z,0.01
2023-11-30T21:20:52.556Z,0.09
2023-11-30T21:23:20.539Z,-0.04
2023-11-30T21:25:48.840Z,0.19
2023-11-30T21:28:16.841Z,0.21
2023-11-30T21:30:44.903Z,0.03
2023-11-30T21:33:12.901Z,-0.14
2023-11-30T21:35:40.981Z,-0.25
2023-11-30T21:38:10.342Z,-0.03
2023-11-30T21:40:38.483Z,0.06
2023-11-30T21:43:06.514Z,0.00
2023-11-30T21:45:34.532Z,-0.01
2023-11-30T21:48:03.047Z,0.02
2023-11-30T21:50:31.078Z,-0.12
2023-11-30T21:52:59.104Z,-0.19
2023-11-30T21:55:28.621Z,0.02
2023-11-30T21:57:56.584Z,0.06
2023-11-30T22:00:24.628Z,0.26
2023-11-30T22:02:52.763Z,0.30
2023-11-30T22:05:27.056Z,0.21
2023-11-30T22:08:03.539Z,0.20
2023-11-30T22:10:32.903Z,0.15
2023-11-30T22:13:01.037Z,0.44
2023-11-30T22:15:29.119Z,0.48
2023-11-30T22:17:57.812Z,0.59
2023-11-30T22:20:25.857Z,0.51
2023-11-30T22:22:54.225Z,0.74
2023-11-30T22:25:23.903Z,0.66
2023-11-30T22:27:53.269Z,0.50
2023-11-30T22:30:21.356Z,0.68
2023-11-30T22:32:49.354Z,0.74
2023-11-30T22:35:18.088Z,0.88
2023-11-30T22:37:46.108Z,0.97
2023-11-30T22:40:14.597Z,1.05
2023-11-30T22:42:42.578Z,0.78
2023-11-30T22:45:12.457Z,0.99
2023-11-30T22:47:40.426Z,1.03
2023-11-30T22:50:09.933Z,1.04
2023-11-30T22:52:38.051Z,0.80
2023-11-30T22:55:06.589Z,0.88
2023-11-30T22:57:34.749Z,0.83
2023-11-30T23:00:03.053Z,0.93
2023-11-30T23:02:32.646Z,0.84
2023-11-30T23:05:01.080Z,0.82
2023-11-30T23:07:29.603Z,0.71
2023-11-30T23:09:57.655Z,0.80
2023-11-30T23:12:25.647Z,0.79
2023-11-30T23:14:53.662Z,0.82
2023-11-30T23:17:22.282Z,1.00
2023-11-30T23:19:51.793Z,1.07
2023-11-30T23:22:19.805Z,0.86
2023-11-30T23:24:47.830Z,0.73
2023-11-30T23:27:15.768Z,0.63
2023-11-30T23:29:43.745Z,0.35
2023-11-30T23:32:11.715Z,0.58
2023-11-30T23:34:39.673Z,0.38
2023-11-30T23:37:09.049Z,0.42
2023-11-30T23:39:37.031Z,0.23
2023-11-30T23:42:05.484Z,-0.12
2023-11-30T23:44:33.568Z,0.03
2023-11-30T23:47:01.595Z,-0.04
2023-11-30T23:49:29.676Z,-0.18
2023-11-30T23:51:57.981Z,-0.27
2023-11-30T23:54:27.343Z,-0.09
2023-11-30T23:56:55.364Z,0.05
2023-11-30T23:59:23.367Z,-0.01
